createdAt,value
2018-06-04T00:00:23.660Z,0
2018-06-04T00:01:23.595Z,0
2018-06-04T00:02:23.659Z,0
2018-06-04T00:03:23.591Z,0
2018-06-04T00:04:23.595Z,0
2018-06-04T00:05:23.592Z,0
2018-06-04T00:06:23.595Z,0
2018-06-04T00:07:23.667Z,0
2018-06-04T00:08:23.615Z,0
2018-06-04T00:09:23.667Z,0
2018-06-04T00:10:23.599Z,0
2018-06-04T00:11:23.595Z,0
2018-06-04T00:12:23.685Z,0
2018-06-04T00:13:23.597Z,0
2018-06-04T00:14:23.673Z,0
2018-06-04T00:15:23.610Z,0
2018-06-04T00:16:23.670Z,0
2018-06-04T00:17:23.589Z,0
2018-06-04T00:18:23.572Z,0
2018-06-04T00:19:23.634Z,0
2018-06-04T00:20:23.572Z,0
2018-06-04T00:21:23.710Z,0
2018-06-04T00:22:23.699Z,0
2018-06-04T00:23:23.675Z,0
2018-06-04T00:24:23.707Z,0
2018-06-04T00:25:23.678Z,0
2018-06-04T00:26:23.710Z,0
2018-06-04T00:27:23.659Z,0
2018-06-04T00:28:23.570Z,0
2018-06-04T00:29:23.609Z,0
2018-06-04T00:30:23.550Z,0
2018-06-04T00:31:23.665Z,0
2018-06-04T00:32:23.647Z,0
2018-06-04T00:33:23.585Z,0
2018-06-04T00:34:23.578Z,0
2018-06-04T00:35:23.670Z,0
2018-06-04T00:36:23.585Z,0
2018-06-04T00:37:23.722Z,0
2018-06-04T00:38:23.682Z,0
2018-06-04T00:39:23.647Z,0
2018-06-04T00:40:23.695Z,0
2018-06-04T00:41:23.710Z,0
2018-06-04T00:42:23.727Z,0
2018-06-04T00:43:23.658Z,0
2018-06-04T00:44:23.709Z,0
2018-06-04T00:45:23.711Z,0
2018-06-04T00:46:23.603Z,0
2018-06-04T00:47:23.691Z,0
2018-06-04T00:48:23.693Z,0
2018-06-04T00:49:23.691Z,0
2018-06-04T00:50:23.621Z,0
2018-06-04T00:51:23.727Z,0
2018-06-04T00:52:23.639Z,0
2018-06-04T00:53:23.625Z,0
2018-06-04T00:54:23.626Z,0
2018-06-04T00:55:23.624Z,0
2018-06-04T00:56:23.635Z,0
2018-06-04T00:57:23.723Z,0
2018-06-04T00:58:23.727Z,0
2018-06-04T00:59:23.714Z,0
2018-06-04T01:00:23.717Z,0
2018-06-04T01:01:23.669Z,0
2018-06-04T01:02:23.635Z,0
2018-06-04T01:03:23.733Z,0
2018-06-04T01:04:23.665Z,0
2018-06-04T01:05:23.603Z,0
2018-06-04T01:06:23.735Z,0
2018-06-04T01:07:23.668Z,0
2018-06-04T01:08:23.708Z,0
2018-06-04T01:09:23.641Z,0
2018-06-04T01:10:23.680Z,0
2018-06-04T01:11:23.700Z,0
2018-06-04T01:12:23.728Z,0
2018-06-04T01:13:23.732Z,0
2018-06-04T01:14:23.668Z,0
2018-06-04T01:15:23.613Z,0
2018-06-04T01:16:23.687Z,0
2018-06-04T01:17:23.713Z,0
2018-06-04T01:18:23.643Z,0
2018-06-04T01:19:23.715Z,0
2018-06-04T01:20:23.657Z,0
2018-06-04T01:21:23.713Z,0
2018-06-04T01:22:23.642Z,0
2018-06-04T01:23:23.718Z,0
2018-06-04T01:24:23.646Z,0
2018-06-04T01:25:23.719Z,0
2018-06-04T01:26:23.610Z,0
2018-06-04T01:27:23.636Z,0
2018-06-04T01:28:23.721Z,0
2018-06-04T01:29:23.622Z,0
2018-06-04T01:30:23.715Z,0
2018-06-04T01:31:23.689Z,0
2018-06-04T01:32:23.728Z,0
2018-06-04T01:33:23.694Z,0
2018-06-04T01:34:23.754Z,0
2018-06-04T01:35:23.726Z,0
2018-06-04T01:36:23.748Z,0
2018-06-04T01:37:23.651Z,0
2018-06-04T01:38:23.717Z,0
2018-06-04T01:39:23.718Z,0
2018-06-04T01:40:23.645Z,0
2018-06-04T01:41:23.719Z,0
2018-06-04T01:42:23.721Z,0
2018-06-04T01:43:23.650Z,0
2018-06-04T01:44:23.720Z,0
2018-06-04T01:45:23.651Z,0
2018-06-04T01:46:23.664Z,0
2018-06-04T01:47:23.715Z,0
2018-06-04T01:48:23.600Z,0
2018-06-04T01:49:23.599Z,0
2018-06-04T01:50:23.717Z,0
2018-06-04T01:51:23.710Z,0
2018-06-04T01:52:23.668Z,0
2018-06-04T01:53:23.726Z,0
2018-06-04T01:54:23.669Z,0
2018-06-04T01:55:23.640Z,0
2018-06-04T01:56:23.675Z,0
2018-06-04T01:57:23.751Z,0
2018-06-04T01:58:23.747Z,0
2018-06-04T01:59:23.717Z,0
2018-06-04T02:00:23.747Z,0
2018-06-04T02:01:23.677Z,0
2018-06-04T02:02:23.713Z,0
2018-06-04T02:03:23.660Z,0
2018-06-04T02:04:23.666Z,0
2018-06-04T02:05:23.801Z,0
2018-06-04T02:06:23.805Z,0
2018-06-04T02:07:23.740Z,0
2018-06-04T02:08:23.720Z,0
2018-06-04T02:09:23.774Z,0
2018-06-04T02:10:23.667Z,0
2018-06-04T02:11:23.766Z,0
2018-06-04T02:12:23.662Z,0
2018-06-04T02:13:23.721Z,0
2018-06-04T02:14:23.790Z,0
2018-06-04T02:15:23.684Z,0
2018-06-04T02:16:23.719Z,0
2018-06-04T02:17:23.650Z,0
2018-06-04T02:18:23.645Z,0
2018-06-04T02:19:23.651Z,0
2018-06-04T02:20:23.653Z,0
2018-06-04T02:21:23.681Z,0
2018-06-04T02:22:23.742Z,0
2018-06-04T02:23:23.729Z,0
2018-06-04T02:24:23.715Z,0
2018-06-04T02:25:23.736Z,0
2018-06-04T02:26:23.687Z,0
2018-06-04T02:27:31.987Z,0
2018-06-04T02:28:23.628Z,0
2018-06-04T02:29:23.649Z,0
2018-06-04T02:30:23.735Z,0
2018-06-04T02:31:23.737Z,0
2018-06-04T02:32:23.689Z,0
2018-06-04T02:33:23.634Z,0
2018-06-04T02:34:23.753Z,0
2018-06-04T02:35:23.624Z,0
2018-06-04T02:36:23.752Z,0
2018-06-04T02:37:23.690Z,0
2018-06-04T02:38:23.758Z,0
2018-06-04T02:39:23.691Z,0
2018-06-04T02:40:23.762Z,0
2018-06-04T02:41:23.696Z,0
2018-06-04T02:42:23.762Z,0
2018-06-04T02:43:23.761Z,0
2018-06-04T02:44:23.699Z,0
2018-06-04T02:45:23.762Z,0
2018-06-04T02:46:23.693Z,0
2018-06-04T02:47:23.773Z,0
2018-06-04T02:48:23.908Z,0
2018-06-04T02:49:23.695Z,0
2018-06-04T02:50:23.742Z,0
2018-06-04T02:51:23.754Z,0
2018-06-04T02:52:23.803Z,0
2018-06-04T02:53:23.771Z,0
2018-06-04T02:54:23.715Z,0
2018-06-04T02:55:23.808Z,5
2018-06-04T02:56:23.791Z,5
2018-06-04T02:57:23.735Z,5
2018-06-04T02:58:23.757Z,5
2018-06-04T02:59:23.755Z,5
2018-06-04T03:00:23.799Z,5
2018-06-04T03:01:23.786Z,5
2018-06-04T03:02:23.795Z,5
2018-06-04T03:03:23.702Z,5
2018-06-04T03:04:23.803Z,11
2018-06-04T03:05:23.720Z,11
2018-06-04T03:06:23.790Z,11
2018-06-04T03:07:23.706Z,11
2018-06-04T03:08:23.776Z,11
2018-06-04T03:09:23.707Z,11
2018-06-04T03:10:23.718Z,16
2018-06-04T03:11:23.781Z,16
2018-06-04T03:12:23.719Z,16
2018-06-04T03:13:23.782Z,16
2018-06-04T03:14:23.713Z,22
2018-06-04T03:15:23.781Z,22
2018-06-04T03:16:23.711Z,22
2018-06-04T03:17:23.754Z,22
2018-06-04T03:18:23.847Z,28
2018-06-04T03:19:23.772Z,28
2018-06-04T03:20:23.830Z,28
2018-06-04T03:21:23.814Z,33
2018-06-04T03:22:23.837Z,33
2018-06-04T03:23:23.711Z,33
2018-06-04T03:24:23.762Z,33
2018-06-04T03:25:23.829Z,39
2018-06-04T03:26:23.732Z,39
2018-06-04T03:27:23.727Z,39
2018-06-04T03:28:23.681Z,39
2018-06-04T03:29:23.727Z,45
2018-06-04T03:30:23.802Z,45
2018-06-04T03:31:23.731Z,45
2018-06-04T03:32:23.693Z,50
2018-06-04T03:33:23.815Z,50
2018-06-04T03:34:23.734Z,56
2018-06-04T03:35:23.801Z,56
2018-06-04T03:36:23.736Z,56
2018-06-04T03:37:23.836Z,61
2018-06-04T03:38:23.744Z,61
2018-06-04T03:39:23.723Z,61
2018-06-04T03:40:23.777Z,67
2018-06-04T03:41:23.722Z,67
2018-06-04T03:42:23.806Z,73
2018-06-04T03:43:23.778Z,78
2018-06-04T03:44:23.844Z,78
2018-06-04T03:45:23.802Z,84
2018-06-04T03:46:23.769Z,90
2018-06-04T03:47:23.744Z,90
2018-06-04T03:48:23.810Z,95
2018-06-04T03:49:23.777Z,101
2018-06-04T03:50:23.745Z,101
2018-06-04T03:51:23.807Z,106
2018-06-04T03:52:23.774Z,106
2018-06-04T03:53:23.749Z,112
2018-06-04T03:54:23.819Z,112
2018-06-04T03:55:23.744Z,118
2018-06-04T03:56:23.754Z,118
2018-06-04T03:57:23.740Z,118
2018-06-04T03:58:23.817Z,123
2018-06-04T03:59:23.793Z,123
2018-06-04T04:00:23.851Z,118
2018-06-04T04:01:23.874Z,123
2018-06-04T04:02:23.818Z,123
2018-06-04T04:03:23.784Z,123
2018-06-04T04:04:23.793Z,123
2018-06-04T04:05:23.822Z,129
2018-06-04T04:06:23.880Z,135
2018-06-04T04:07:23.735Z,140
2018-06-04T04:08:23.787Z,146
2018-06-04T04:09:23.849Z,146
2018-06-04T04:10:23.821Z,151
2018-06-04T04:11:23.850Z,157
2018-06-04T04:12:23.842Z,163
2018-06-04T04:13:23.788Z,163
2018-06-04T04:14:23.727Z,168
2018-06-04T04:15:23.744Z,168
2018-06-04T04:16:23.823Z,174
2018-06-04T04:17:23.733Z,174
2018-06-04T04:18:23.730Z,180
2018-06-04T04:19:23.836Z,185
2018-06-04T04:20:23.747Z,185
2018-06-04T04:21:23.758Z,185
2018-06-04T04:22:24.017Z,191
2018-06-04T04:23:23.776Z,196
2018-06-04T04:24:23.825Z,202
2018-06-04T04:25:23.817Z,208
2018-06-04T04:26:23.749Z,213
2018-06-04T04:27:23.853Z,219
2018-06-04T04:28:23.877Z,225
2018-06-04T04:29:23.797Z,230
2018-06-04T04:30:23.856Z,230
2018-06-04T04:31:23.740Z,230
2018-06-04T04:32:23.865Z,236
2018-06-04T04:33:23.834Z,241
2018-06-04T04:34:23.798Z,241
2018-06-04T04:35:23.869Z,241
2018-06-04T04:36:23.867Z,247
2018-06-04T04:37:23.778Z,253
2018-06-04T04:38:23.863Z,264
2018-06-04T04:39:23.822Z,270
2018-06-04T04:40:23.759Z,281
2018-06-04T04:41:23.749Z,286
2018-06-04T04:42:23.795Z,292
2018-06-04T04:43:23.809Z,298
2018-06-04T04:44:23.846Z,298
2018-06-04T04:45:23.815Z,298
2018-06-04T04:46:23.879Z,298
2018-06-04T04:47:23.841Z,298
2018-06-04T04:48:23.832Z,309
2018-06-04T04:49:23.808Z,315
2018-06-04T04:50:23.849Z,315
2018-06-04T04:51:23.742Z,315
2018-06-04T04:52:23.808Z,320
2018-06-04T04:53:23.781Z,326
2018-06-04T04:54:23.829Z,326
2018-06-04T04:55:23.728Z,337
2018-06-04T04:56:23.751Z,337
2018-06-04T04:57:23.861Z,343
2018-06-04T04:58:23.776Z,343
2018-06-04T04:59:23.823Z,337
2018-06-04T05:00:23.890Z,337
2018-06-04T05:01:23.884Z,348
2018-06-04T05:02:23.818Z,343
2018-06-04T05:03:23.859Z,343
2018-06-04T05:04:23.787Z,348
2018-06-04T05:05:23.895Z,354
2018-06-04T05:06:23.899Z,360
2018-06-04T05:07:23.836Z,365
2018-06-04T05:08:23.897Z,371
2018-06-04T05:09:23.880Z,382
2018-06-04T05:10:23.835Z,393
2018-06-04T05:11:23.786Z,405
2018-06-04T05:12:23.892Z,421
2018-06-04T05:13:23.837Z,433
2018-06-04T05:14:23.822Z,438
2018-06-04T05:15:23.807Z,444
2018-06-04T05:16:23.862Z,438
2018-06-04T05:17:23.807Z,438
2018-06-04T05:18:23.838Z,438
2018-06-04T05:19:23.868Z,444
2018-06-04T05:20:23.898Z,450
2018-06-04T05:21:23.889Z,455
2018-06-04T05:22:23.893Z,461
2018-06-04T05:23:23.835Z,461
2018-06-04T05:24:23.913Z,472
2018-06-04T05:25:23.772Z,472
2018-06-04T05:26:23.934Z,478
2018-06-04T05:27:23.837Z,483
2018-06-04T05:28:23.834Z,489
2018-06-04T05:29:23.809Z,500
2018-06-04T05:30:23.901Z,500
2018-06-04T05:31:23.848Z,523
2018-06-04T05:32:23.798Z,528
2018-06-04T05:33:23.874Z,545
2018-06-04T05:34:23.921Z,551
2018-06-04T05:35:23.818Z,551
2018-06-04T05:36:23.795Z,551
2018-06-04T05:37:23.783Z,551
2018-06-04T05:38:23.897Z,556
2018-06-04T05:39:23.911Z,562
2018-06-04T05:40:23.912Z,568
2018-06-04T05:41:23.786Z,579
2018-06-04T05:42:23.938Z,590
2018-06-04T05:43:23.920Z,590
2018-06-04T05:44:23.883Z,590
2018-06-04T05:45:23.805Z,596
2018-06-04T05:46:23.923Z,601
2018-06-04T05:47:23.890Z,613
2018-06-04T05:48:23.985Z,630
2018-06-04T05:49:23.889Z,641
2018-06-04T05:50:23.839Z,652
2018-06-04T05:51:23.821Z,669
2018-06-04T05:52:23.821Z,680
2018-06-04T05:53:23.889Z,708
2018-06-04T05:54:23.828Z,725
2018-06-04T05:55:23.827Z,731
2018-06-04T05:56:23.828Z,736
2018-06-04T05:57:23.820Z,748
2018-06-04T05:58:23.833Z,753
2018-06-04T05:59:23.851Z,765
2018-06-04T06:00:23.769Z,770
2018-06-04T06:01:23.851Z,770
2018-06-04T06:02:23.800Z,787
2018-06-04T06:03:23.891Z,804
2018-06-04T06:04:23.882Z,832
2018-06-04T06:05:23.894Z,843
2018-06-04T06:06:23.894Z,849
2018-06-04T06:07:23.821Z,860
2018-06-04T06:08:23.935Z,871
2018-06-04T06:09:23.807Z,877
2018-06-04T06:10:23.828Z,860
2018-06-04T06:11:23.907Z,849
2018-06-04T06:12:23.907Z,849
2018-06-04T06:13:23.803Z,855
2018-06-04T06:14:23.966Z,855
2018-06-04T06:15:23.872Z,849
2018-06-04T06:16:23.830Z,860
2018-06-04T06:17:23.933Z,871
2018-06-04T06:18:23.763Z,877
2018-06-04T06:19:23.810Z,883
2018-06-04T06:20:23.766Z,888
2018-06-04T06:21:23.765Z,894
2018-06-04T06:22:23.770Z,894
2018-06-04T06:23:23.816Z,922
2018-06-04T06:24:23.817Z,950
2018-06-04T06:25:23.833Z,967
2018-06-04T06:26:23.770Z,973
2018-06-04T06:27:23.816Z,956
2018-06-04T06:28:23.941Z,945
2018-06-04T06:29:23.942Z,945
2018-06-04T06:30:23.949Z,933
2018-06-04T06:31:23.820Z,961
2018-06-04T06:32:23.853Z,1001
2018-06-04T06:33:23.915Z,1018
2018-06-04T06:34:23.958Z,1023
2018-06-04T06:35:23.915Z,1029
2018-06-04T06:36:23.896Z,1018
2018-06-04T06:37:23.957Z,1018
2018-06-04T06:38:23.889Z,1018
2018-06-04T06:39:23.965Z,1018
2018-06-04T06:40:23.888Z,1029
2018-06-04T06:41:23.960Z,1023
2018-06-04T06:42:23.927Z,1029
2018-06-04T06:43:23.951Z,1051
2018-06-04T06:44:23.966Z,1102
2018-06-04T06:45:23.957Z,1136
2018-06-04T06:46:23.967Z,1181
2018-06-04T06:47:23.847Z,1220
2018-06-04T06:48:23.961Z,1260
2018-06-04T06:49:23.955Z,1248
2018-06-04T06:50:23.850Z,1254
2018-06-04T06:51:23.986Z,1276
2018-06-04T06:52:23.927Z,1293
2018-06-04T06:53:23.927Z,1321
2018-06-04T06:54:23.989Z,1338
2018-06-04T06:55:23.862Z,1344
2018-06-04T06:56:23.930Z,1350
2018-06-04T06:57:23.918Z,1372
2018-06-04T06:58:23.902Z,1423
2018-06-04T06:59:23.862Z,1473
2018-06-04T07:00:23.942Z,1507
2018-06-04T07:01:23.865Z,1513
2018-06-04T07:02:23.934Z,1518
2018-06-04T07:03:23.903Z,1569
2018-06-04T07:04:23.858Z,1648
2018-06-04T07:05:23.918Z,1721
2018-06-04T07:06:23.876Z,1743
2018-06-04T07:07:23.956Z,1698
2018-06-04T07:08:23.941Z,1642
2018-06-04T07:09:23.904Z,1659
2018-06-04T07:10:23.841Z,1676
2018-06-04T07:11:23.862Z,1670
2018-06-04T07:12:23.908Z,1721
2018-06-04T07:13:23.961Z,1726
2018-06-04T07:14:23.977Z,1575
2018-06-04T07:15:23.902Z,1535
2018-06-04T07:16:23.946Z,1524
2018-06-04T07:17:23.968Z,1530
2018-06-04T07:18:23.944Z,1507
2018-06-04T07:19:23.870Z,1513
2018-06-04T07:20:23.825Z,1501
2018-06-04T07:21:23.983Z,1507
2018-06-04T07:22:23.869Z,1530
2018-06-04T07:23:23.872Z,1586
2018-06-04T07:24:23.935Z,1653
2018-06-04T07:25:23.820Z,1715
2018-06-04T07:26:23.872Z,1749
2018-06-04T07:27:23.860Z,1800
2018-06-04T07:28:23.882Z,1935
2018-06-04T07:29:23.957Z,2143
2018-06-04T07:30:23.885Z,2947
2018-06-04T07:31:23.957Z,2767
2018-06-04T07:32:23.965Z,3695
2018-06-04T07:33:23.993Z,3864
2018-06-04T07:34:23.892Z,3881
2018-06-04T07:35:23.889Z,3825
2018-06-04T07:36:23.892Z,3605
2018-06-04T07:37:23.961Z,3690
2018-06-04T07:38:23.928Z,3549
2018-06-04T07:39:24.000Z,3740
2018-06-04T07:40:23.959Z,3729
2018-06-04T07:41:24.095Z,3605
2018-06-04T07:42:23.892Z,3746
2018-06-04T07:43:23.998Z,3841
2018-06-04T07:44:23.978Z,3774
2018-06-04T07:45:23.939Z,3735
2018-06-04T07:46:23.908Z,3875
2018-06-04T07:47:23.931Z,3881
2018-06-04T07:48:23.973Z,3915
2018-06-04T07:49:23.966Z,3976
2018-06-04T07:50:23.970Z,3560
2018-06-04T07:51:24.009Z,3954
2018-06-04T07:52:24.002Z,3960
2018-06-04T07:53:23.911Z,4016
2018-06-04T07:54:23.928Z,4027
2018-06-04T07:55:23.940Z,4066
2018-06-04T07:56:23.992Z,4044
2018-06-04T07:57:23.926Z,4033
2018-06-04T07:58:23.941Z,4055
2018-06-04T07:59:23.991Z,4044
2018-06-04T08:00:23.974Z,4055
2018-06-04T08:01:24.000Z,4066
2018-06-04T08:02:23.911Z,4055
2018-06-04T08:03:23.995Z,4083
2018-06-04T08:04:23.975Z,4140
2018-06-04T08:05:23.881Z,4162
2018-06-04T08:06:24.018Z,4218
2018-06-04T08:07:23.958Z,4246
2018-06-04T08:08:23.854Z,4269
2018-06-04T08:09:23.973Z,4303
2018-06-04T08:10:23.903Z,4314
2018-06-04T08:11:23.922Z,4258
2018-06-04T08:12:23.927Z,4258
2018-06-04T08:13:23.979Z,4297
2018-06-04T08:14:23.978Z,4365
2018-06-04T08:15:23.926Z,4410
2018-06-04T08:16:23.981Z,4415
2018-06-04T08:17:23.905Z,4466
2018-06-04T08:18:23.929Z,4516
2018-06-04T08:19:23.891Z,4550
2018-06-04T08:20:23.891Z,4567
2018-06-04T08:21:24.007Z,4550
2018-06-04T08:22:24.017Z,4601
2018-06-04T08:23:23.932Z,4561
2018-06-04T08:24:23.955Z,4522
2018-06-04T08:25:24.013Z,4511
2018-06-04T08:26:24.065Z,4466
2018-06-04T08:27:23.989Z,4477
2018-06-04T08:28:23.928Z,4460
2018-06-04T08:29:23.968Z,4471
2018-06-04T08:30:23.932Z,4494
2018-06-04T08:31:23.866Z,4556
2018-06-04T08:32:23.948Z,4618
2018-06-04T08:33:23.895Z,4657
2018-06-04T08:34:23.954Z,4696
2018-06-04T08:35:23.892Z,4708
2018-06-04T08:36:23.955Z,4725
2018-06-04T08:37:23.931Z,4741
2018-06-04T08:38:24.027Z,4764
2018-06-04T08:39:24.032Z,4775
2018-06-04T08:40:24.057Z,4815
2018-06-04T08:41:23.919Z,4882
2018-06-04T08:42:23.969Z,4837
2018-06-04T08:43:23.922Z,4865
2018-06-04T08:44:24.059Z,4888
2018-06-04T08:45:23.943Z,4860
2018-06-04T08:46:23.915Z,4860
2018-06-04T08:47:23.984Z,4860
2018-06-04T08:48:23.911Z,4871
2018-06-04T08:49:23.931Z,4860
2018-06-04T08:50:23.887Z,4809
2018-06-04T08:51:23.918Z,4820
2018-06-04T08:52:23.948Z,4809
2018-06-04T08:53:23.951Z,4815
2018-06-04T08:54:23.996Z,4837
2018-06-04T08:55:23.957Z,4865
2018-06-04T08:56:24.032Z,4888
2018-06-04T08:57:23.919Z,4972
2018-06-04T08:58:23.930Z,5006
2018-06-04T08:59:23.936Z,5073
2018-06-04T09:00:23.887Z,5056
2018-06-04T09:01:23.891Z,5023
2018-06-04T09:02:24.011Z,5000
2018-06-04T09:03:23.957Z,4938
2018-06-04T09:04:24.002Z,4848
2018-06-04T09:05:23.890Z,4775
2018-06-04T09:06:24.004Z,4792
2018-06-04T09:07:24.005Z,4916
2018-06-04T09:08:23.955Z,4972
2018-06-04T09:09:23.936Z,5017
2018-06-04T09:10:23.991Z,5079
2018-06-04T09:11:23.947Z,5124
2018-06-04T09:12:24.022Z,5146
2018-06-04T09:13:24.034Z,5146
2018-06-04T09:14:24.021Z,5141
2018-06-04T09:15:23.999Z,5124
2018-06-04T09:16:24.057Z,5130
2018-06-04T09:17:23.999Z,5169
2018-06-04T09:18:23.991Z,5220
2018-06-04T09:19:24.061Z,5281
2018-06-04T09:20:24.042Z,5366
2018-06-04T09:21:24.047Z,5445
2018-06-04T09:22:24.031Z,5495
2018-06-04T09:23:24.060Z,5535
2018-06-04T09:24:23.991Z,5540
2018-06-04T09:25:24.057Z,5557
2018-06-04T09:26:23.935Z,5557
2018-06-04T09:27:24.063Z,5546
2018-06-04T09:28:23.996Z,5490
2018-06-04T09:29:23.999Z,5433
2018-06-04T09:30:23.996Z,5388
2018-06-04T09:31:23.996Z,5411
2018-06-04T09:32:24.046Z,5439
2018-06-04T09:33:24.005Z,5422
2018-06-04T09:34:24.012Z,5394
2018-06-04T09:35:24.064Z,5371
2018-06-04T09:36:24.020Z,5377
2018-06-04T09:37:24.037Z,5383
2018-06-04T09:38:24.065Z,5388
2018-06-04T09:39:24.003Z,5366
2018-06-04T09:40:24.001Z,5388
2018-06-04T09:41:24.017Z,5433
2018-06-04T09:42:24.018Z,5445
2018-06-04T09:43:24.079Z,5467
2018-06-04T09:44:24.005Z,5490
2018-06-04T09:45:24.016Z,5473
2018-06-04T09:46:24.085Z,5512
2018-06-04T09:47:24.071Z,5535
2018-06-04T09:48:24.016Z,5557
2018-06-04T09:49:24.011Z,5585
2018-06-04T09:50:24.007Z,5596
2018-06-04T09:51:24.069Z,5591
2018-06-04T09:52:24.083Z,5613
2018-06-04T09:54:24.021Z,5709
2018-06-04T09:55:24.084Z,5726
2018-06-04T09:56:24.010Z,5765
2018-06-04T09:57:24.016Z,5782
2018-06-04T09:58:23.984Z,5788
2018-06-04T09:59:24.050Z,5670
2018-06-04T10:00:24.083Z,5608
2018-06-04T10:01:23.987Z,5551
2018-06-04T10:02:24.054Z,5596
2018-06-04T10:03:24.013Z,5664
2018-06-04T10:04:24.053Z,5709
2018-06-04T10:05:24.058Z,5737
2018-06-04T10:06:24.055Z,5715
2018-06-04T10:07:23.989Z,5703
2018-06-04T10:08:24.145Z,5760
2018-06-04T10:09:24.026Z,5838
2018-06-04T10:10:24.058Z,5968
2018-06-04T10:11:23.968Z,5973
2018-06-04T10:12:24.087Z,5940
2018-06-04T10:13:23.984Z,5923
2018-06-04T10:14:24.028Z,5911
2018-06-04T10:15:24.049Z,5838
2018-06-04T10:16:24.030Z,5810
2018-06-04T10:17:24.092Z,5866
2018-06-04T10:18:23.969Z,5917
2018-06-04T10:19:24.101Z,5900
2018-06-04T10:20:23.971Z,5883
2018-06-04T10:21:24.007Z,5866
2018-06-04T10:22:24.046Z,5923
2018-06-04T10:23:24.037Z,5883
2018-06-04T10:24:24.093Z,5827
2018-06-04T10:25:24.106Z,5793
2018-06-04T10:26:24.029Z,5850
2018-06-04T10:27:24.031Z,5940
2018-06-04T10:28:24.068Z,5968
2018-06-04T10:29:24.071Z,5945
2018-06-04T10:30:24.006Z,5945
2018-06-04T10:31:24.072Z,5968
2018-06-04T10:32:24.008Z,6013
2018-06-04T10:33:24.157Z,6097
2018-06-04T10:34:23.956Z,6052
2018-06-04T10:35:24.036Z,6080
2018-06-04T10:36:24.009Z,6063
2018-06-04T10:37:24.076Z,5990
2018-06-04T10:38:24.074Z,5973
2018-06-04T10:39:24.009Z,6013
2018-06-04T10:40:24.084Z,6052
2018-06-04T10:41:24.011Z,5906
2018-06-04T10:42:24.079Z,5883
2018-06-04T10:43:24.015Z,5855
2018-06-04T10:44:24.080Z,5816
2018-06-04T10:45:24.010Z,5760
2018-06-04T10:46:24.083Z,5675
2018-06-04T10:47:24.082Z,5551
2018-06-04T10:48:24.092Z,5360
2018-06-04T10:49:24.016Z,5360
2018-06-04T10:50:24.117Z,5281
2018-06-04T10:51:24.086Z,5158
2018-06-04T10:52:24.087Z,4955
2018-06-04T10:53:24.134Z,4876
2018-06-04T10:54:24.088Z,4978
2018-06-04T10:55:24.092Z,5101
2018-06-04T10:56:24.090Z,5276
2018-06-04T10:57:24.031Z,5495
2018-06-04T10:58:23.994Z,5641
2018-06-04T10:59:24.024Z,5731
2018-06-04T11:00:24.084Z,5821
2018-06-04T11:01:24.043Z,5850
2018-06-04T11:02:23.977Z,5799
2018-06-04T11:03:24.048Z,5810
2018-06-04T11:04:24.051Z,5866
2018-06-04T11:05:23.970Z,5883
2018-06-04T11:06:24.035Z,5878
2018-06-04T11:07:23.972Z,5878
2018-06-04T11:08:23.996Z,5799
2018-06-04T11:09:24.077Z,5675
2018-06-04T11:10:24.131Z,5529
2018-06-04T11:11:24.130Z,5715
2018-06-04T11:12:24.079Z,5760
2018-06-04T11:13:24.132Z,5765
2018-06-04T11:14:24.130Z,4961
2018-06-04T11:15:24.134Z,3864
2018-06-04T11:16:24.133Z,5844
2018-06-04T11:17:24.026Z,5928
2018-06-04T11:18:24.032Z,5889
2018-06-04T11:19:24.057Z,5658
2018-06-04T11:20:24.014Z,3009
2018-06-04T11:21:24.069Z,2908
2018-06-04T11:22:23.972Z,5298
2018-06-04T11:23:23.973Z,5259
2018-06-04T11:24:24.054Z,3864
2018-06-04T11:25:24.060Z,5456
2018-06-04T11:26:24.065Z,5253
2018-06-04T11:27:23.996Z,3915
2018-06-04T11:28:24.042Z,3026
2018-06-04T11:29:24.115Z,5146
2018-06-04T11:30:24.106Z,5461
2018-06-04T11:31:24.050Z,5574
2018-06-04T11:32:24.112Z,5810
2018-06-04T11:33:24.152Z,5968
2018-06-04T11:34:24.111Z,6046
2018-06-04T11:35:24.180Z,6046
2018-06-04T11:36:24.115Z,5990
2018-06-04T11:37:24.053Z,5821
2018-06-04T11:38:24.053Z,5630
2018-06-04T11:39:24.120Z,5501
2018-06-04T11:40:24.055Z,5445
2018-06-04T11:41:24.114Z,3695
2018-06-04T11:42:24.118Z,2351
2018-06-04T11:43:24.055Z,2491
2018-06-04T11:44:24.122Z,2103
2018-06-04T11:45:24.112Z,2041
2018-06-04T11:46:24.075Z,2570
2018-06-04T11:47:24.117Z,2413
2018-06-04T11:48:24.119Z,2491
2018-06-04T11:49:24.099Z,3251
2018-06-04T11:50:24.063Z,5495
2018-06-04T11:51:24.108Z,5006
2018-06-04T11:52:24.102Z,5388
2018-06-04T11:53:24.164Z,5557
2018-06-04T11:54:24.131Z,5630
2018-06-04T11:55:24.085Z,5304
2018-06-04T11:56:24.072Z,2716
2018-06-04T11:57:24.150Z,2165
2018-06-04T11:58:24.153Z,1985
2018-06-04T11:59:24.163Z,1963
2018-06-04T12:00:24.105Z,2008
2018-06-04T12:01:24.153Z,2019
2018-06-04T12:02:24.104Z,2126
2018-06-04T12:03:24.053Z,2666
2018-06-04T12:04:24.118Z,3538
2018-06-04T12:05:24.081Z,2486
2018-06-04T12:06:24.093Z,2593
2018-06-04T12:07:24.034Z,2846
2018-06-04T12:08:24.059Z,3262
2018-06-04T12:09:24.105Z,5951
2018-06-04T12:10:24.101Z,6131
2018-06-04T12:11:24.169Z,6114
2018-06-04T12:12:24.115Z,6013
2018-06-04T12:13:24.184Z,5951
2018-06-04T12:14:24.117Z,5883
2018-06-04T12:15:24.042Z,5715
2018-06-04T12:16:24.052Z,5428
2018-06-04T12:17:24.070Z,5191
2018-06-04T12:18:24.263Z,4803
2018-06-04T12:19:24.080Z,4719
2018-06-04T12:20:24.108Z,2126
2018-06-04T12:21:24.168Z,2008
2018-06-04T12:22:24.052Z,1963
2018-06-04T12:23:24.104Z,1923
2018-06-04T12:24:24.165Z,1940
2018-06-04T12:25:24.176Z,2025
2018-06-04T12:26:24.103Z,2047
2018-06-04T12:27:24.070Z,2064
2018-06-04T12:28:24.120Z,2070
2018-06-04T12:29:24.069Z,2030
2018-06-04T12:30:24.070Z,2019
2018-06-04T12:31:24.109Z,2025
2018-06-04T12:32:24.127Z,2036
2018-06-04T12:33:24.089Z,2064
2018-06-04T12:34:24.131Z,2160
2018-06-04T12:35:24.115Z,2463
2018-06-04T12:36:24.056Z,2784
2018-06-04T12:37:24.178Z,2773
2018-06-04T12:38:24.116Z,4730
2018-06-04T12:39:24.160Z,5276
2018-06-04T12:40:24.179Z,5236
2018-06-04T12:41:24.116Z,5265
2018-06-04T12:42:24.198Z,5326
2018-06-04T12:43:24.082Z,5287
2018-06-04T12:44:24.194Z,5141
2018-06-04T12:45:24.083Z,5040
2018-06-04T12:46:24.081Z,4950
2018-06-04T12:47:24.099Z,4995
2018-06-04T12:48:24.085Z,5158
2018-06-04T12:49:24.160Z,5186
2018-06-04T12:50:24.101Z,5146
2018-06-04T12:51:24.133Z,5107
2018-06-04T12:52:24.132Z,5090
2018-06-04T12:53:24.200Z,5028
2018-06-04T12:54:24.092Z,5107
2018-06-04T12:55:24.103Z,4702
2018-06-04T12:56:24.166Z,3785
2018-06-04T12:57:24.140Z,4168
2018-06-04T12:58:24.111Z,4471
2018-06-04T12:59:24.082Z,4764
2018-06-04T13:00:24.173Z,5113
2018-06-04T13:01:24.188Z,5203
2018-06-04T13:02:24.077Z,5242
2018-06-04T13:03:24.145Z,5158
2018-06-04T13:04:24.247Z,4741
2018-06-04T13:05:24.179Z,5332
2018-06-04T13:06:24.202Z,5293
2018-06-04T13:07:24.219Z,5175
2018-06-04T13:08:24.202Z,4876
2018-06-04T13:09:24.189Z,4241
2018-06-04T13:10:24.176Z,2970
2018-06-04T13:11:24.145Z,2407
2018-06-04T13:12:24.102Z,4477
2018-06-04T13:13:24.101Z,2401
2018-06-04T13:14:24.152Z,2216
2018-06-04T13:15:24.146Z,4376
2018-06-04T13:16:24.117Z,2233
2018-06-04T13:17:24.085Z,2131
2018-06-04T13:18:24.159Z,3324
2018-06-04T13:19:24.141Z,4061
2018-06-04T13:20:24.213Z,4798
2018-06-04T13:21:24.155Z,4196
2018-06-04T13:22:24.158Z,2131
2018-06-04T13:23:24.208Z,1968
2018-06-04T13:24:24.163Z,1839
2018-06-04T13:25:24.216Z,1766
2018-06-04T13:26:24.151Z,1738
2018-06-04T13:27:24.168Z,1732
2018-06-04T13:28:24.157Z,2137
2018-06-04T13:29:24.222Z,1710
2018-06-04T13:30:24.220Z,1681
2018-06-04T13:31:24.162Z,1681
2018-06-04T13:32:24.156Z,1777
2018-06-04T13:33:24.195Z,1901
2018-06-04T13:34:24.212Z,1946
2018-06-04T13:35:24.194Z,1996
2018-06-04T13:36:24.093Z,2188
2018-06-04T13:37:24.167Z,4353
2018-06-04T13:38:24.100Z,4185
2018-06-04T13:39:24.148Z,4269
2018-06-04T13:40:24.083Z,4303
2018-06-04T13:41:24.133Z,4443
2018-06-04T13:42:24.133Z,4500
2018-06-04T13:43:24.198Z,4516
2018-06-04T13:44:24.133Z,4471
2018-06-04T13:45:24.138Z,4376
2018-06-04T13:46:24.205Z,4398